Time;durP1;ratioP1;P1;durP2;ratioP2;P2;SDS_P1;SDS_P2;PMS_P1;PMS_P2;Temp;Humidity;BMP_temperature;BMP_pressure;BME280_temperature;BME280_humidity;BME280_pressure;Samples;Min_cycle;Max_cycle;Signal;HPM_P1;HPM_P2
2023/04/19 00:00:09;;;;;;;40.58;16.38;;;8.70;99.90;;;;;;5060665;28;20049;-80
2023/04/19 00:02:35;;;;;;;40.38;16.50;;;8.70;99.90;;;;;;5060090;28;20037;-80
2023/04/19 00:05:01;;;;;;;42.55;17.05;;;8.70;99.90;;;;;;5059108;28;20049;-83
2023/04/19 00:07:27;;;;;;;42.88;17.30;;;8.70;99.90;;;;;;5060402;28;20049;-82
2023/04/19 00:09:52;;;;;;;46.55;17.48;;;8.70;99.90;;;;;;5058263;28;20072;-82
2023/04/19 00:12:18;;;;;;;38.65;17.02;;;8.70;99.90;;;;;;5060787;28;20099;-83
2023/04/19 00:14:44;;;;;;;41.83;18.10;;;8.70;99.90;;;;;;5056728;28;20088;-81
2023/04/19 00:17:10;;;;;;;47.28;17.73;;;8.60;99.90;;;;;;5042401;28;20098;-80
2023/04/19 00:19:37;;;;;;;38.47;17.02;;;8.60;99.90;;;;;;5059646;28;20397;-83
2023/04/19 00:22:02;;;;;;;42.92;17.63;;;8.60;99.90;;;;;;5060589;28;20041;-84
2023/04/19 00:24:28;;;;;;;43.63;17.48;;;8.60;99.90;;;;;;5059669;28;20143;-81
2023/04/19 00:26:54;;;;;;;46.00;18.08;;;8.60;99.90;;;;;;5063955;28;20045;-81
2023/04/19 00:29:20;;;;;;;44.28;17.13;;;8.50;99.90;;;;;;5062248;28;20496;-79
2023/04/19 00:31:45;;;;;;;45.45;17.27;;;8.50;99.90;;;;;;5062798;28;20041;-82
2023/04/19 00:34:11;;;;;;;40.25;16.30;;;8.50;99.90;;;;;;5062076;28;20128;-86
2023/04/19 00:36:37;;;;;;;43.83;16.33;;;8.50;99.90;;;;;;5064666;28;20049;-80
2023/04/19 00:39:03;;;;;;;42.67;16.77;;;8.50;99.90;;;;;;5062821;28;20117;-83
2023/04/19 00:41:28;;;;;;;43.08;16.13;;;8.50;99.90;;;;;;5065808;28;20048;-83
2023/04/19 00:43:54;;;;;;;38.03;16.73;;;8.60;99.90;;;;;;5066965;28;20056;-83
2023/04/19 00:46:20;;;;;;;44.47;17.15;;;8.50;99.90;;;;;;5065106;28;20060;-78
2023/04/19 00:48:47;;;;;;;40.10;15.88;;;8.50;99.90;;;;;;5062563;28;20042;-80
2023/04/19 00:51:13;;;;;;;43.15;17.92;;;8.50;99.90;;;;;;5062586;28;20053;-81
2023/04/19 00:53:40;;;;;;;48.13;17.58;;;8.60;99.90;;;;;;5059442;28;20097;-82
2023/04/19 00:56:05;;;;;;;41.70;16.58;;;8.50;99.90;;;;;;5056995;28;20085;-83
2023/04/19 00:58:31;;;;;;;40.53;15.68;;;8.50;99.90;;;;;;5058534;28;20117;-79
2023/04/19 01:00:58;;;;;;;45.58;16.73;;;8.50;99.90;;;;;;5055606;28;20041;-85
2023/04/19 01:03:26;;;;;;;41.50;15.52;;;8.50;99.90;;;;;;5056883;28;20045;-84
2023/04/19 01:05:52;;;;;;;39.88;15.55;;;8.50;99.90;;;;;;5057119;28;20053;-83
2023/04/19 01:08:18;;;;;;;42.97;15.95;;;8.50;99.90;;;;;;5058179;28;20049;-83
2023/04/19 01:10:44;;;;;;;38.92;14.77;;;8.50;99.90;;;;;;5058569;28;20572;-84
2023/04/19 01:13:09;;;;;;;42.03;16.35;;;8.60;99.90;;;;;;5060936;28;20084;-83
2023/04/19 01:15:35;;;;;;;41.25;16.02;;;8.50;99.90;;;;;;5057193;28;20053;-81
2023/04/19 01:18:01;;;;;;;38.83;15.23;;;8.50;99.90;;;;;;5061414;28;20079;-81
2023/04/19 01:20:27;;;;;;;41.08;16.05;;;8.50;99.90;;;;;;5064343;28;20045;-81
2023/04/19 01:22:52;;;;;;;43.08;15.65;;;8.60;99.90;;;;;;5066141;28;20068;-79
2023/04/19 01:25:18;;;;;;;38.58;14.48;;;8.60;99.90;;;;;;5064477;28;20049;-82
2023/04/19 01:27:44;;;;;;;32.65;13.25;;;8.60;99.90;;;;;;5063353;28;20048;-81
2023/04/19 01:30:10;;;;;;;33.92;14.70;;;8.60;99.90;;;;;;5064938;28;20102;-84
2023/04/19 01:32:36;;;;;;;36.72;14.55;;;8.60;99.90;;;;;;5061815;28;20052;-81
2023/04/19 01:35:02;;;;;;;40.80;13.75;;;8.60;99.90;;;;;;5062968;28;20049;-79
2023/04/19 01:37:28;;;;;;;34.67;12.73;;;8.60;99.90;;;;;;5060140;28;20417;-78
2023/04/19 01:39:54;;;;;;;41.38;13.63;;;8.60;99.90;;;;;;5055844;28;20053;-77
2023/04/19 01:42:19;;;;;;;33.22;11.75;;;8.60;99.90;;;;;;5055236;28;20045;-80
2023/04/19 01:44:45;;;;;;;38.50;12.65;;;8.70;99.90;;;;;;5037834;28;20048;-75
2023/04/19 01:47:11;;;;;;;31.92;11.50;;;8.70;99.90;;;;;;5053178;28;20092;-77
2023/04/19 01:49:36;;;;;;;29.90;12.15;;;8.80;99.90;;;;;;5053549;28;20099;-78
2023/04/19 01:52:02;;;;;;;29.45;12.40;;;8.80;99.90;;;;;;5052947;28;20056;-78
2023/04/19 01:54:28;;;;;;;28.70;11.23;;;8.80;99.90;;;;;;5054517;28;20059;-81
2023/04/19 01:56:54;;;;;;;33.00;13.70;;;8.80;99.90;;;;;;5055217;28;20045;-80
2023/04/19 01:59:19;;;;;;;35.63;12.95;;;8.80;99.90;;;;;;5053602;28;20462;-80
2023/04/19 02:01:45;;;;;;;29.90;12.38;;;8.80;99.90;;;;;;5036559;28;20199;-75
2023/04/19 02:04:11;;;;;;;37.90;15.70;;;8.80;99.90;;;;;;5054670;28;20052;-76
2023/04/19 02:06:36;;;;;;;30.23;11.23;;;8.80;99.90;;;;;;5053934;28;20397;-75
2023/04/19 02:09:02;;;;;;;30.38;11.60;;;8.70;99.90;;;;;;5054382;28;20508;-75
2023/04/19 02:11:28;;;;;;;29.33;11.82;;;8.70;99.90;;;;;;5054267;28;20057;-79
2023/04/19 02:13:54;;;;;;;29.80;10.80;;;8.70;99.90;;;;;;5053400;28;20088;-77
2023/04/19 02:16:20;;;;;;;31.25;12.07;;;8.70;99.90;;;;;;5054019;28;20507;-78
2023/04/19 02:18:47;;;;;;;33.40;12.65;;;8.60;99.90;;;;;;5053245;28;20131;-76
2023/04/19 02:21:12;;;;;;;33.33;11.25;;;8.60;99.90;;;;;;5055628;28;20131;-77
2023/04/19 02:23:38;;;;;;;30.38;12.68;;;8.50;99.90;;;;;;5054011;28;20105;-77
2023/04/19 02:26:04;;;;;;;30.67;11.88;;;8.60;99.90;;;;;;5054487;28;20136;-77
2023/04/19 02:28:31;;;;;;;27.98;11.48;;;8.50;99.90;;;;;;5052429;28;20041;-77
2023/04/19 02:30:57;;;;;;;30.33;11.40;;;8.50;99.90;;;;;;5053812;28;20056;-73
2023/04/19 02:33:25;;;;;;;32.95;12.10;;;8.50;99.90;;;;;;5052373;28;20136;-79
2023/04/19 02:35:51;;;;;;;29.75;10.82;;;8.50;99.90;;;;;;5054792;28;20362;-79
2023/04/19 02:38:17;;;;;;;29.00;11.85;;;8.50;99.90;;;;;;5055952;28;20130;-76
2023/04/19 02:40:42;;;;;;;25.85;11.05;;;8.50;99.90;;;;;;5019389;28;20099;-79
2023/04/19 02:43:08;;;;;;;32.75;12.68;;;8.50;99.90;;;;;;5036479;28;20095;-80
2023/04/19 02:45:35;;;;;;;30.88;11.73;;;8.40;99.90;;;;;;5053667;28;20045;-76
2023/04/19 02:48:01;;;;;;;29.20;10.73;;;8.40;99.90;;;;;;5053960;28;20059;-80
2023/04/19 02:50:27;;;;;;;27.90;10.75;;;8.30;99.90;;;;;;5037154;28;20056;-80
2023/04/19 02:52:52;;;;;;;27.15;11.40;;;8.40;99.90;;;;;;5053433;28;20378;-77
2023/04/19 02:55:18;;;;;;;29.40;11.73;;;8.30;99.90;;;;;;5052407;28;20118;-80
2023/04/19 02:57:44;;;;;;;28.48;11.63;;;8.30;99.90;;;;;;5036911;28;20068;-75
2023/04/19 03:00:11;;;;;;;29.15;10.75;;;8.30;99.90;;;;;;5054990;28;20052;-80
2023/04/19 03:02:38;;;;;;;25.45;11.15;;;8.20;99.90;;;;;;5053753;28;20049;-77
2023/04/19 03:05:05;;;;;;;36.80;10.73;;;8.20;99.90;;;;;;5053849;28;20057;-75
2023/04/19 03:07:31;;;;;;;27.10;11.82;;;8.10;99.90;;;;;;5053738;28;20056;-79
2023/04/19 03:09:56;;;;;;;27.23;10.20;;;8.10;99.90;;;;;;5053693;28;20045;-80
2023/04/19 03:12:22;;;;;;;29.23;10.25;;;8.10;99.90;;;;;;5057103;28;20060;-81
2023/04/19 03:14:48;;;;;;;23.45;9.75;;;8.00;99.90;;;;;;5057812;28;20059;-77
2023/04/19 03:17:14;;;;;;;27.73;10.45;;;8.10;99.90;;;;;;5058335;28;20045;-76
2023/04/19 03:19:40;;;;;;;32.92;10.55;;;7.90;99.90;;;;;;5060258;28;20374;-80
2023/04/19 03:22:05;;;;;;;28.30;11.60;;;7.80;99.90;;;;;;5056693;28;20045;-78
2023/04/19 03:24:31;;;;;;;29.63;11.52;;;7.70;99.90;;;;;;5042897;28;20047;-82
2023/04/19 03:26:57;;;;;;;26.80;10.18;;;7.60;99.90;;;;;;5058066;28;20085;-78
2023/04/19 03:29:23;;;;;;;25.38;9.70;;;7.60;99.90;;;;;;5059375;28;20045;-79
2023/04/19 03:31:49;;;;;;;25.02;9.98;;;7.50;99.90;;;;;;5057494;28;20043;-76
2023/04/19 03:34:14;;;;;;;22.40;9.15;;;7.50;99.90;;;;;;5058149;28;20049;-77
2023/04/19 03:36:40;;;;;;;33.72;11.45;;;7.50;99.90;;;;;;5040818;28;20056;-82
2023/04/19 03:39:06;;;;;;;24.98;10.02;;;7.50;99.90;;;;;;5059427;28;20064;-78
2023/04/19 03:41:32;;;;;;;23.75;10.05;;;7.30;99.90;;;;;;5059166;28;20045;-85
2023/04/19 03:43:58;;;;;;;25.38;9.98;;;7.20;99.90;;;;;;5058846;28;20048;-78
2023/04/19 03:46:24;;;;;;;24.92;9.90;;;7.20;99.90;;;;;;5041048;28;20052;-79
2023/04/19 03:48:51;;;;;;;26.55;10.77;;;7.20;99.90;;;;;;5058027;28;20036;-77
2023/04/19 03:51:16;;;;;;;28.40;10.93;;;7.10;99.90;;;;;;5057833;28;20094;-79
2023/04/19 03:53:42;;;;;;;23.67;9.98;;;7.10;99.90;;;;;;5058190;28;20040;-74
2023/04/19 03:56:08;;;;;;;24.42;10.35;;;7.10;99.90;;;;;;5041832;28;20049;-79
2023/04/19 03:58:34;;;;;;;26.05;10.60;;;7.00;99.90;;;;;;5057819;28;20390;-78
2023/04/19 04:01:00;;;;;;;25.20;10.68;;;6.90;99.90;;;;;;5057197;28;20080;-76
2023/04/19 04:03:26;;;;;;;26.00;10.50;;;6.90;99.90;;;;;;5057353;28;20051;-81
2023/04/19 04:05:52;;;;;;;25.15;9.73;;;6.80;99.90;;;;;;5056816;28;20047;-79
2023/04/19 04:08:17;;;;;;;28.10;9.80;;;6.70;99.90;;;;;;5057517;28;20057;-77
2023/04/19 04:10:43;;;;;;;29.48;10.18;;;6.70;99.90;;;;;;5038969;28;20049;-82
2023/04/19 04:13:09;;;;;;;29.17;10.15;;;6.60;99.90;;;;;;5057091;28;20049;-79
2023/04/19 04:15:35;;;;;;;28.35;9.98;;;6.60;99.90;;;;;;5056874;28;20049;-79
2023/04/19 04:18:00;;;;;;;23.75;9.90;;;6.60;99.90;;;;;;5055135;28;20110;-78
2023/04/19 04:20:26;;;;;;;22.50;9.65;;;6.50;99.90;;;;;;5057854;28;20040;-78
2023/04/19 04:22:52;;;;;;;29.40;10.55;;;6.40;99.90;;;;;;5055141;28;20048;-81
2023/04/19 04:25:18;;;;;;;24.52;10.13;;;6.40;99.90;;;;;;5039271;28;20076;-80
2023/04/19 04:27:44;;;;;;;28.85;12.20;;;6.30;99.90;;;;;;5055483;28;20523;-79
2023/04/19 04:30:11;;;;;;;23.13;8.80;;;6.30;99.90;;;;;;5023981;28;20133;-81
2023/04/19 04:32:37;;;;;;;31.05;9.98;;;6.30;99.90;;;;;;5056183;28;20311;-83
2023/04/19 04:35:07;;;;;;;28.27;9.67;;;6.20;99.90;;;;;;5055808;28;20093;-77
2023/04/19 04:37:34;;;;;;;25.80;9.32;;;6.20;99.90;;;;;;5055350;28;20049;-78
2023/04/19 04:40:00;;;;;;;25.02;9.98;;;6.20;99.90;;;;;;5057558;28;20045;-78
2023/04/19 04:42:30;;;;;;;22.93;9.23;;;6.10;99.90;;;;;;5039830;28;20091;-78
2023/04/19 04:44:56;;;;;;;24.48;10.07;;;6.10;99.90;;;;;;5040436;28;20299;-82
2023/04/19 04:47:23;;;;;;;20.67;8.25;;;6.10;99.90;;;;;;5055604;28;20057;-77
2023/04/19 04:49:48;;;;;;;23.13;9.07;;;6.10;99.90;;;;;;5055375;28;20190;-82
2023/04/19 04:52:14;;;;;;;25.15;9.35;;;6.10;99.90;;;;;;5056699;28;20124;-74
2023/04/19 04:54:40;;;;;;;25.33;9.05;;;6.20;99.90;;;;;;5056187;28;20049;-76
2023/04/19 04:57:07;;;;;;;24.65;10.98;;;6.20;99.90;;;;;;5055455;28;20132;-82
2023/04/19 04:59:33;;;;;;;23.00;9.88;;;6.20;99.90;;;;;;5057354;28;20060;-79
2023/04/19 05:01:58;;;;;;;22.35;8.40;;;6.20;99.90;;;;;;5055483;28;20392;-79
2023/04/19 05:04:24;;;;;;;23.05;9.70;;;6.40;99.90;;;;;;5059893;28;20129;-78
2023/04/19 05:06:50;;;;;;;19.77;8.77;;;6.40;99.90;;;;;;5055664;28;20052;-80
2023/04/19 05:09:16;;;;;;;24.55;8.85;;;6.20;99.90;;;;;;5058558;28;20053;-72
2023/04/19 05:11:41;;;;;;;22.15;9.70;;;6.30;99.90;;;;;;5056225;28;20453;-81
2023/04/19 05:14:07;;;;;;;24.55;8.68;;;6.30;99.90;;;;;;5058951;28;20051;-80
2023/04/19 05:16:33;;;;;;;19.20;8.52;;;6.30;99.90;;;;;;5057076;28;20044;-76
2023/04/19 05:18:59;;;;;;;23.63;9.10;;;6.30;99.90;;;;;;5055421;28;20080;-83
2023/04/19 05:21:25;;;;;;;23.02;9.20;;;6.40;99.90;;;;;;5056526;28;20131;-79
2023/04/19 05:23:52;;;;;;;29.67;10.88;;;6.40;99.90;;;;;;5060653;28;20056;-79
2023/04/19 05:26:18;;;;;;;24.50;9.57;;;6.40;99.90;;;;;;5057685;28;20076;-74
2023/04/19 05:28:44;;;;;;;29.23;10.55;;;6.40;99.90;;;;;;5059363;28;20131;-83
2023/04/19 05:31:10;;;;;;;24.58;8.77;;;6.50;99.90;;;;;;5056906;28;20063;-84
2023/04/19 05:33:36;;;;;;;25.13;9.23;;;6.40;99.90;;;;;;5055202;28;20110;-78
2023/04/19 05:36:02;;;;;;;19.85;8.27;;;6.40;99.90;;;;;;5055256;28;20389;-78
2023/04/19 05:38:28;;;;;;;22.38;7.97;;;6.50;99.90;;;;;;5056609;28;20057;-81
2023/04/19 05:40:54;;;;;;;18.50;7.60;;;6.50;99.90;;;;;;5054433;28;20048;-75
2023/04/19 05:43:20;;;;;;;26.05;8.25;;;6.60;99.90;;;;;;5054870;28;20076;-79
2023/04/19 05:45:46;;;;;;;19.08;7.47;;;6.60;99.90;;;;;;5055929;28;20056;-81
2023/04/19 05:48:12;;;;;;;19.23;7.20;;;6.60;99.90;;;;;;5056731;28;20041;-82
2023/04/19 05:50:38;;;;;;;18.92;7.15;;;6.70;99.90;;;;;;5056559;28;20056;-81
2023/04/19 05:53:04;;;;;;;19.15;8.02;;;6.70;99.90;;;;;;5056919;28;20370;-78
2023/04/19 05:55:30;;;;;;;20.08;7.72;;;6.80;99.90;;;;;;5056393;28;20140;-79
2023/04/19 05:57:58;;;;;;;20.98;7.43;;;6.80;99.90;;;;;;5057721;28;20068;-78
2023/04/19 06:00:23;;;;;;;20.65;7.25;;;6.90;99.90;;;;;;5054711;28;20051;-78
2023/04/19 06:02:49;;;;;;;15.25;6.45;;;7.00;99.90;;;;;;5054138;28;20119;-80
2023/04/19 06:05:15;;;;;;;16.67;6.38;;;7.10;99.90;;;;;;5036626;28;20400;-80
2023/04/19 06:07:41;;;;;;;14.65;6.40;;;7.10;99.90;;;;;;5054542;28;20132;-83
2023/04/19 06:10:07;;;;;;;16.98;6.15;;;7.10;99.90;;;;;;5057090;28;20045;-77
2023/04/19 06:12:33;;;;;;;15.70;6.05;;;7.20;99.90;;;;;;5056094;28;20057;-79
2023/04/19 06:14:59;;;;;;;16.83;5.70;;;7.10;99.90;;;;;;5052956;28;20063;-76
2023/04/19 06:17:25;;;;;;;17.85;6.55;;;7.20;99.90;;;;;;5053826;28;20051;-74
2023/04/19 06:19:51;;;;;;;14.55;5.07;;;7.20;99.90;;;;;;5052770;28;20131;-80
2023/04/19 06:22:17;;;;;;;15.97;5.77;;;7.30;99.90;;;;;;5053966;28;20477;-79
2023/04/19 06:24:46;;;;;;;15.00;5.40;;;7.40;99.90;;;;;;5052976;28;20163;-77
2023/04/19 06:27:14;;;;;;;17.85;6.18;;;7.40;99.90;;;;;;5054180;28;20084;-83
2023/04/19 06:29:39;;;;;;;;;;;7.50;99.90;;;;;;5054143;28;20106;-82
2023/04/19 06:32:05;;;;;;;14.50;4.47;;;7.50;99.90;;;;;;5069793;28;19921;-78
2023/04/19 06:34:31;;;;;;;15.30;4.53;;;7.60;99.90;;;;;;5054330;28;20052;-76
2023/04/19 06:36:57;;;;;;;15.13;5.10;;;7.60;99.90;;;;;;5052949;28;20055;-78
2023/04/19 06:39:22;;;;;;;14.57;4.90;;;7.60;99.90;;;;;;5053798;28;20059;-78
2023/04/19 06:41:48;;;;;;;11.45;3.67;;;7.70;99.90;;;;;;5052291;28;20048;-77
2023/04/19 06:44:14;;;;;;;12.13;4.70;;;7.80;99.90;;;;;;5052350;28;20041;-75
2023/04/19 06:46:39;;;;;;;13.32;4.35;;;8.00;99.90;;;;;;5035519;28;20122;-76
2023/04/19 06:49:05;;;;;;;13.13;4.63;;;8.00;99.90;;;;;;5053921;28;20370;-78
2023/04/19 06:51:32;;;;;;;12.77;4.72;;;8.00;99.90;;;;;;5052039;28;20045;-78
2023/04/19 06:53:58;;;;;;;13.85;4.22;;;8.00;99.90;;;;;;5020046;28;20099;-78
2023/04/19 06:56:47;;;;;;;12.18;4.80;;;8.10;99.90;;;;;;5052267;28;20041;-82
2023/04/19 06:59:15;;;;;;;13.00;4.72;;;8.20;99.90;;;;;;5053714;28;20362;-82
2023/04/19 07:01:41;;;;;;;11.98;4.20;;;8.20;99.90;;;;;;5053664;28;20044;-75
2023/04/19 07:04:07;;;;;;;11.07;4.07;;;8.30;99.90;;;;;;5036455;28;20045;-78
2023/04/19 07:06:34;;;;;;;10.98;4.15;;;8.40;99.90;;;;;;5053429;28;20191;-75
2023/04/19 07:09:01;;;;;;;8.18;3.55;;;8.50;99.90;;;;;;5053343;28;20053;-79
2023/04/19 07:11:26;;;;;;;9.35;3.90;;;8.50;99.90;;;;;;5053468;28;20062;-80
2023/04/19 07:13:52;;;;;;;16.13;3.97;;;8.60;99.50;;;;;;5053261;28;20053;-77
2023/04/19 07:16:19;;;;;;;8.20;3.40;;;8.70;99.60;;;;;;5052283;28;20045;-75
2023/04/19 07:18:44;;;;;;;10.23;2.75;;;8.70;99.70;;;;;;5052198;28;20130;-73
2023/04/19 07:21:10;;;;;;;8.60;2.67;;;8.80;98.40;;;;;;5051564;28;20486;-77
2023/04/19 07:23:36;;;;;;;9.52;3.05;;;8.90;98.00;;;;;;5051348;28;20052;-75
2023/04/19 07:26:02;;;;;;;7.00;1.88;;;8.80;98.00;;;;;;5052934;28;20128;-74
2023/04/19 07:28:28;;;;;;;7.15;2.58;;;8.90;97.30;;;;;;5035166;28;20128;-75
2023/04/19 07:30:54;;;;;;;9.82;2.10;;;8.90;97.40;;;;;;5051548;28;20151;-78
2023/04/19 07:33:21;;;;;;;7.82;2.15;;;9.00;97.00;;;;;;5035702;28;20080;-76
2023/04/19 07:35:47;;;;;;;5.35;1.80;;;9.10;96.90;;;;;;5052993;28;20053;-75
2023/04/19 07:38:12;;;;;;;6.30;1.88;;;9.10;96.50;;;;;;5051595;28;20051;-78
2023/04/19 07:40:38;;;;;;;6.32;2.17;;;9.20;95.90;;;;;;5051749;28;20131;-78
2023/04/19 07:43:04;;;;;;;8.70;1.88;;;9.20;96.30;;;;;;5051585;28;20048;-77
2023/04/19 07:45:30;;;;;;;6.18;1.92;;;9.30;96.40;;;;;;5052819;28;20056;-75
2023/04/19 07:47:56;;;;;;;4.75;1.50;;;9.40;96.10;;;;;;5052691;28;20393;-77
2023/04/19 07:50:25;;;;;;;5.53;1.40;;;9.50;95.20;;;;;;5035154;28;20080;-75
2023/04/19 07:52:50;;;;;;;5.85;1.75;;;9.50;94.50;;;;;;5052673;28;20041;-75
2023/04/19 07:55:16;;;;;;;5.07;1.23;;;9.60;94.40;;;;;;5052641;28;20055;-74
2023/04/19 07:57:46;;;;;;;12.48;1.65;;;9.60;94.50;;;;;;5052159;28;20461;-80
2023/04/19 08:00:16;;;;;;;4.90;1.30;;;9.60;95.10;;;;;;5056533;28;20091;-82
2023/04/19 08:02:46;;;;;;;4.20;1.50;;;9.70;94.70;;;;;;5055923;28;20037;-77
2023/04/19 08:05:13;;;;;;;5.47;1.30;;;9.70;94.30;;;;;;5056281;28;20041;-77
2023/04/19 08:07:39;;;;;;;7.75;1.40;;;9.80;94.70;;;;;;5056187;28;20087;-74
2023/04/19 08:10:06;;;;;;;4.95;1.20;;;9.90;94.30;;;;;;5055625;28;20081;-78
2023/04/19 08:12:32;;;;;;;5.32;1.58;;;9.90;94.50;;;;;;5055872;28;20053;-81
2023/04/19 08:14:57;;;;;;;8.23;1.75;;;10.00;93.70;;;;;;5056004;28;20167;-80
2023/04/19 08:17:23;;;;;;;7.50;1.30;;;10.10;94.10;;;;;;5038331;28;20124;-78
2023/04/19 08:19:49;;;;;;;3.60;1.15;;;10.20;93.70;;;;;;5054780;28;20046;-75
2023/04/19 08:22:16;;;;;;;4.83;1.70;;;10.20;92.90;;;;;;5055637;28;20051;-77
2023/04/19 08:24:43;;;;;;;4.70;1.60;;;10.30;92.50;;;;;;5055794;28;20103;-78
2023/04/19 08:27:11;;;;;;;11.17;2.03;;;10.30;92.10;;;;;;5055884;28;20049;-76
2023/04/19 08:29:37;;;;;;;13.43;2.40;;;10.40;92.10;;;;;;5055864;28;20155;-74
2023/04/19 08:32:04;;;;;;;5.18;1.73;;;10.40;92.40;;;;;;5055768;28;20052;-76
2023/04/19 08:34:30;;;;;;;4.03;1.63;;;10.40;91.50;;;;;;5056068;28;20044;-76
2023/04/19 08:36:56;;;;;;;4.90;1.58;;;10.40;91.30;;;;;;5055269;28;20118;-76
2023/04/19 08:39:22;;;;;;;4.78;1.52;;;10.50;91.30;;;;;;5055564;28;20049;-77
2023/04/19 08:41:48;;;;;;;6.85;1.77;;;10.50;90.70;;;;;;5038117;28;20389;-76
2023/04/19 08:44:16;;;;;;;5.13;1.92;;;10.50;90.60;;;;;;5055667;28;20137;-77
2023/04/19 08:46:43;;;;;;;6.95;1.98;;;10.60;89.90;;;;;;5055580;28;20135;-76
2023/04/19 08:49:09;;;;;;;6.18;1.83;;;10.60;90.20;;;;;;5055601;28;20131;-82
2023/04/19 08:51:37;;;;;;;6.65;2.72;;;10.70;90.10;;;;;;5055218;28;20123;-82
2023/04/19 08:54:06;;;;;;;9.75;2.42;;;10.60;89.10;;;;;;5056027;28;20049;-77
2023/04/19 08:56:32;;;;;;;9.50;2.17;;;10.70;90.30;;;;;;5055893;28;20162;-80
2023/04/19 08:58:58;;;;;;;6.63;2.15;;;10.70;90.20;;;;;;5054246;28;20052;-74
2023/04/19 09:01:24;;;;;;;5.72;2.38;;;10.80;87.10;;;;;;5055037;28;20048;-76
2023/04/19 09:03:49;;;;;;;6.50;1.95;;;10.80;87.90;;;;;;5054653;28;20043;-78
2023/04/19 09:06:15;;;;;;;6.13;2.15;;;10.90;86.10;;;;;;5054272;28;20049;-78
2023/04/19 09:08:41;;;;;;;4.57;1.92;;;10.90;85.90;;;;;;5055138;28;20060;-78
2023/04/19 09:11:07;;;;;;;6.07;1.85;;;11.00;85.70;;;;;;5055056;28;20474;-82
2023/04/19 09:13:37;;;;;;;7.10;2.08;;;11.00;86.40;;;;;;5055955;28;20049;-82
2023/04/19 09:16:04;;;;;;;6.47;2.47;;;11.20;84.30;;;;;;5054800;28;20139;-78
2023/04/19 09:18:30;;;;;;;5.03;1.90;;;11.20;83.90;;;;;;5038515;28;20052;-75
2023/04/19 09:20:59;;;;;;;7.95;2.33;;;11.20;83.30;;;;;;5055708;28;20420;-80
2023/04/19 09:23:27;;;;;;;7.90;2.50;;;11.30;84.20;;;;;;5053758;28;20045;-77
2023/04/19 09:25:55;;;;;;;6.28;1.90;;;11.40;84.30;;;;;;5055135;28;20052;-77
2023/04/19 09:28:21;;;;;;;4.65;2.20;;;11.60;83.00;;;;;;5055544;28;20053;-80
2023/04/19 09:30:47;;;;;;;9.32;2.75;;;11.60;82.50;;;;;;5070706;28;20056;-77
2023/04/19 09:33:29;;;;;;;8.82;2.30;;;11.60;82.70;;;;;;5038152;28;20404;-76
2023/04/19 09:35:55;;;;;;;8.38;2.05;;;11.60;81.50;;;;;;5055593;28;20045;-78
2023/04/19 09:38:21;;;;;;;5.35;1.77;;;11.70;81.70;;;;;;5053557;28;20056;-75
2023/04/19 09:40:48;;;;;;;5.88;2.00;;;11.80;81.60;;;;;;5020908;28;20549;-75
2023/04/19 09:43:24;;;;;;;5.65;2.15;;;11.80;82.10;;;;;;5038610;28;20041;-79
2023/04/19 09:45:50;;;;;;;9.07;2.30;;;11.80;81.30;;;;;;5056755;28;20052;-79
2023/04/19 09:48:16;;;;;;;7.35;2.38;;;11.90;80.90;;;;;;5040330;28;20049;-80
2023/04/19 09:50:59;;;;;;;8.10;2.00;;;11.90;79.80;;;;;;5054750;28;20048;-81
2023/04/19 09:53:26;;;;;;;6.65;2.30;;;11.90;79.70;;;;;;5071847;28;20052;-77
2023/04/19 09:55:52;;;;;;;4.20;1.70;;;11.90;79.70;;;;;;5054831;28;20083;-75
2023/04/19 09:58:20;;;;;;;7.45;2.10;;;12.00;81.20;;;;;;5054663;28;20053;-80
2023/04/19 10:00:47;;;;;;;5.75;1.67;;;12.10;80.20;;;;;;5053833;28;20057;-77
2023/04/19 10:03:15;;;;;;;8.55;2.03;;;12.10;80.00;;;;;;5053049;28;20465;-78
2023/04/19 10:05:41;;;;;;;6.00;2.22;;;12.20;80.00;;;;;;5053067;28;20128;-76
2023/04/19 10:08:08;;;;;;;4.35;1.77;;;12.20;78.80;;;;;;5053686;28;20496;-75
2023/04/19 10:10:35;;;;;;;7.85;1.58;;;12.30;78.10;;;;;;5054702;28;20048;-76
2023/04/19 10:13:03;;;;;;;8.38;1.92;;;12.40;77.40;;;;;;5055025;28;20458;-82
2023/04/19 10:15:35;;;;;;;7.32;2.08;;;12.30;76.30;;;;;;5053252;28;20052;-83
2023/04/19 10:18:03;;;;;;;5.88;1.80;;;12.30;77.50;;;;;;5037291;28;20473;-77
2023/04/19 10:20:45;;;;;;;6.72;1.88;;;12.30;78.50;;;;;;5055503;28;20075;-76
2023/04/19 10:23:12;;;;;;;4.97;1.80;;;12.40;79.50;;;;;;5054850;28;20080;-76
2023/04/19 10:25:38;;;;;;;4.93;1.70;;;12.40;78.70;;;;;;5054405;28;20052;-75
2023/04/19 10:28:03;;;;;;;6.55;1.92;;;12.40;78.80;;;;;;5054703;28;20119;-82
2023/04/19 10:30:29;;;;;;;5.28;2.03;;;12.40;79.70;;;;;;5052995;28;20059;-80
2023/04/19 10:32:58;;;;;;;5.28;1.88;;;12.50;79.30;;;;;;5053247;28;20037;-84
2023/04/19 10:35:28;;;;;;;4.35;2.10;;;12.40;78.10;;;;;;5054029;28;20044;-82
2023/04/19 10:38:09;;;;;;;4.60;1.60;;;12.40;77.90;;;;;;5053863;28;20045;-80
2023/04/19 10:41:00;;;;;;;5.20;1.63;;;12.50;76.70;;;;;;5036281;28;20040;-76
2023/04/19 10:43:28;;;;;;;4.38;1.52;;;12.60;76.80;;;;;;5053995;28;20029;-77
2023/04/19 10:45:57;;;;;;;12.35;1.63;;;12.50;71.60;;;;;;5053007;28;20044;-78
2023/04/19 10:48:26;;;;;;;2.95;1.25;;;12.60;72.90;;;;;;5053540;28;20477;-73
2023/04/19 10:51:17;;;;;;;5.35;1.60;;;12.60;72.10;;;;;;5052558;28;20049;-78
2023/04/19 10:53:55;;;;;;;4.35;1.45;;;12.80;72.00;;;;;;5048994;28;20048;-81
2023/04/19 10:56:33;;;;;;;4.68;1.55;;;12.80;72.60;;;;;;5052103;28;20098;-76
2023/04/19 10:59:06;;;;;;;4.90;1.20;;;12.90;72.50;;;;;;5052351;28;20045;-77
2023/04/19 11:01:38;;;;;;;4.75;1.85;;;13.00;72.60;;;;;;5036073;28;20056;-77
2023/04/19 11:04:05;;;;;;;7.40;1.70;;;13.00;71.00;;;;;;5052870;28;20120;-78
2023/04/19 11:06:34;;;;;;;4.47;1.65;;;13.10;70.10;;;;;;5054025;28;20064;-77
2023/04/19 11:09:05;;;;;;;5.05;1.25;;;13.10;70.90;;;;;;5053149;28;20043;-76
2023/04/19 11:11:35;;;;;;;4.10;1.05;;;13.10;70.00;;;;;;5053483;28;20457;-76
2023/04/19 11:14:03;;;;;;;4.80;1.48;;;13.20;68.80;;;;;;5052059;28;20057;-76
2023/04/19 11:16:29;;;;;;;5.22;1.35;;;13.20;69.70;;;;;;5053670;28;20045;-76
2023/04/19 11:18:55;;;;;;;4.53;1.15;;;13.30;69.10;;;;;;5019241;28;20134;-76
2023/04/19 11:21:22;;;;;;;8.50;1.35;;;13.40;69.10;;;;;;5053126;28;20044;-80
2023/04/19 11:24:04;;;;;;;6.72;1.20;;;13.40;68.30;;;;;;5051706;28;20090;-77
2023/04/19 11:26:30;;;;;;;5.63;1.10;;;13.40;68.80;;;;;;5052852;28;20048;-78
2023/04/19 11:28:55;;;;;;;5.07;1.50;;;13.40;68.50;;;;;;5052137;28;20053;-81
2023/04/19 11:31:22;;;;;;;6.35;1.35;;;13.50;66.80;;;;;;5051953;28;20049;-74
2023/04/19 11:33:48;;;;;;;3.85;1.15;;;13.50;66.60;;;;;;5056926;28;20115;-76
2023/04/19 11:36:14;;;;;;;5.80;1.00;;;13.40;66.40;;;;;;5056687;28;20071;-78
2023/04/19 11:38:40;;;;;;;5.10;1.27;;;13.60;66.80;;;;;;5056075;28;20051;-78
2023/04/19 11:41:06;;;;;;;3.85;0.98;;;13.50;65.00;;;;;;5055688;28;20048;-76
2023/04/19 11:43:35;;;;;;;4.60;1.05;;;13.50;65.40;;;;;;5056592;28;20052;-75
2023/04/19 11:46:09;;;;;;;2.58;0.88;;;13.60;65.20;;;;;;5055756;28;20107;-76
2023/04/19 11:48:35;;;;;;;4.53;0.90;;;13.70;65.20;;;;;;5055125;28;20504;-75
2023/04/19 11:51:02;;;;;;;3.30;1.38;;;13.70;66.40;;;;;;5056597;28;20051;-83
2023/04/19 11:53:30;;;;;;;10.32;1.55;;;13.70;65.80;;;;;;5055352;28;20084;-79
2023/04/19 11:56:06;;;;;;;4.22;1.02;;;13.70;67.00;;;;;;5055449;28;20128;-74
2023/04/19 11:58:43;;;;;;;4.90;1.20;;;13.80;67.90;;;;;;5056117;28;20044;-77
2023/04/19 12:01:12;;;;;;;3.10;1.10;;;13.80;67.60;;;;;;5055815;28;20085;-79
2023/04/19 12:03:45;;;;;;;3.88;1.30;;;13.90;66.40;;;;;;5057045;28;20099;-78
2023/04/19 12:06:22;;;;;;;4.85;1.63;;;13.80;67.30;;;;;;5057103;28;20052;-81
2023/04/19 12:08:49;;;;;;;4.22;1.77;;;13.90;68.00;;;;;;5055280;28;20045;-79
2023/04/19 12:11:17;;;;;;;4.35;1.33;;;13.80;65.30;;;;;;5056550;28;20457;-75
2023/04/19 12:13:43;;;;;;;5.43;1.40;;;13.70;67.50;;;;;;5023626;28;20203;-79
2023/04/19 12:16:10;;;;;;;4.07;1.52;;;13.70;68.10;;;;;;5056222;28;20081;-78
2023/04/19 12:18:49;;;;;;;3.90;1.80;;;13.70;69.00;;;;;;5054909;28;20053;-79
2023/04/19 12:21:30;;;;;;;4.70;1.60;;;13.80;70.30;;;;;;5055992;28;20041;-76
2023/04/19 12:23:57;;;;;;;5.70;1.92;;;13.90;69.90;;;;;;5055585;28;20048;-77
2023/04/19 12:26:24;;;;;;;4.38;1.48;;;14.00;69.90;;;;;;5056085;28;20110;-78
2023/04/19 12:28:50;;;;;;;4.43;1.70;;;14.00;70.00;;;;;;5056076;28;20053;-76
2023/04/19 12:31:15;;;;;;;7.85;2.05;;;14.10;70.00;;;;;;5057113;28;20056;-79
2023/04/19 12:33:41;;;;;;;9.75;2.00;;;14.00;70.30;;;;;;5057082;28;20132;-82
2023/04/19 12:36:07;;;;;;;7.47;2.65;;;13.90;71.50;;;;;;5055835;28;20453;-80
2023/04/19 12:38:33;;;;;;;8.15;2.40;;;13.90;71.40;;;;;;5056874;28;20041;-80
2023/04/19 12:40:58;;;;;;;5.10;2.38;;;13.90;71.70;;;;;;5055837;28;20504;-82
2023/04/19 12:43:24;;;;;;;4.15;1.83;;;13.90;72.80;;;;;;5055680;28;20126;-74